createdAt,value
2022-08-09T00:00:05.916Z,97656.19
2022-08-09T00:01:10.456Z,97655.97
2022-08-09T00:02:12.681Z,97663.44
2022-08-09T00:04:03.504Z,97665.47
2022-08-09T00:04:38.137Z,97672.13
2022-08-09T00:06:19.739Z,97667.09
2022-08-09T00:07:02.165Z,97661.00
2022-08-09T00:08:04.722Z,97669.50
2022-08-09T00:09:12.271Z,97673.53
2022-08-09T00:10:17.962Z,97665.84
2022-08-09T00:11:25.022Z,97665.84
2022-08-09T00:12:29.795Z,97671.13
2022-08-09T00:13:38.396Z,97666.06
2022-08-09T00:14:42.662Z,97669.75
2022-08-09T00:15:59.720Z,97669.16
2022-08-09T00:17:04.468Z,97668.13
2022-08-09T00:18:11.208Z,97673.97
2022-08-09T00:19:13.552Z,97672.38
2022-08-09T00:20:20.465Z,97672.44
2022-08-09T00:21:22.546Z,97678.97
2022-08-09T00:22:24.738Z,97668.63
2022-08-09T00:23:55.083Z,97681.59
2022-08-09T00:24:59.691Z,97671.63
2022-08-09T00:26:06.562Z,97671.41
2022-08-09T00:27:08.394Z,97674.06
2022-08-09T00:28:10.320Z,97668.56
2022-08-09T00:29:39.403Z,97671.53
2022-08-09T00:30:34.732Z,97676.19
2022-08-09T00:31:58.416Z,97673.28
2022-08-09T00:32:58.435Z,97673.53
2022-08-09T00:34:00.350Z,97669.88
2022-08-09T00:35:04.591Z,97671.78
2022-08-09T00:36:06.484Z,97671.22
2022-08-09T00:37:10.370Z,97666.56
2022-08-09T00:38:13.189Z,97675.75
2022-08-09T00:40:09.836Z,97665.19
2022-08-09T00:40:40.498Z,97676.31
2022-08-09T00:44:11.235Z,97679.75
2022-08-09T00:44:13.717Z,97670.03
2022-08-09T00:44:39.508Z,97670.63
2022-08-09T00:45:47.430Z,97670.38
2022-08-09T00:47:05.469Z,97669.16
2022-08-09T00:48:07.935Z,97667.09
2022-08-09T00:49:17.212Z,97672.38
2022-08-09T00:50:23.182Z,97668.56
2022-08-09T00:51:25.397Z,97669.78
2022-08-09T00:52:30.317Z,97673.00
2022-08-09T00:53:32.793Z,97674.06
2022-08-09T00:54:38.153Z,97667.75
2022-08-09T00:56:05.404Z,97664.31
2022-08-09T00:57:10.636Z,97664.31
2022-08-09T00:58:14.748Z,97660.88
2022-08-09T00:59:40.711Z,97662.13
2022-08-09T01:00:44.093Z,97657.09
2022-08-09T01:01:47.581Z,97660.50
2022-08-09T01:03:03.185Z,97655.47
2022-08-09T01:04:13.525Z,97654.22
2022-08-09T01:05:22.642Z,97661.97
2022-08-09T01:07:08.032Z,97651.66
2022-08-09T01:08:26.747Z,97656.72
2022-08-09T01:09:43.325Z,97654.44
2022-08-09T01:11:08.565Z,97658.75
2022-08-09T01:12:12.652Z,97649.91
2022-08-09T01:13:31.343Z,97658.84
2022-08-09T01:15:05.760Z,97654.81
2022-08-09T01:16:13.026Z,97651.97
2022-08-09T01:17:30.533Z,97660.66
2022-08-09T01:18:37.564Z,97657.22
2022-08-09T01:20:02.731Z,97656.44
2022-08-09T01:21:14.275Z,97649.53
2022-08-09T01:22:33.978Z,97658.47
2022-08-09T01:24:02.422Z,97659.66
2022-08-09T01:25:08.785Z,97661.84
2022-08-09T01:26:32.854Z,97649.91
2022-08-09T01:27:36.307Z,97658.47
2022-08-09T01:28:40.754Z,97659.28
2022-08-09T01:29:54.987Z,97659.06
2022-08-09T01:31:00.471Z,97650.56
2022-08-09T01:32:32.698Z,97651.38
2022-08-09T01:33:28.283Z,97657.00
2022-08-09T01:34:31.909Z,97647.84
2022-08-09T01:35:42.712Z,97652.31
2022-08-09T01:36:45.367Z,97646.03
2022-08-09T01:38:08.174Z,97654.75
2022-08-09T01:39:12.810Z,97659.66
2022-08-09T01:40:23.197Z,97649.91
2022-08-09T01:41:31.659Z,97654.00
2022-08-09T01:42:33.830Z,97653.22
2022-08-09T01:43:42.299Z,97647.47
2022-08-09T01:44:55.159Z,97648.09
2022-08-09T01:45:57.956Z,97646.25
2022-08-09T01:47:01.096Z,97646.25
2022-08-09T01:48:05.864Z,97652.69
2022-08-09T01:49:12.669Z,97646.84
2022-08-09T01:50:16.709Z,97658.63
2022-08-09T01:51:22.858Z,97655.63
2022-08-09T01:52:26.130Z,97660.91
2022-08-09T01:53:41.657Z,97662.13
2022-08-09T01:54:49.227Z,97656.84
2022-08-09T01:55:54.058Z,97667.84
2022-08-09T01:56:57.996Z,97666.22
2022-08-09T01:58:07.048Z,97660.81
2022-08-09T01:59:10.785Z,97665.28
2022-08-09T02:00:34.496Z,97661.25
2022-08-09T02:01:59.791Z,97666.28
2022-08-09T02:03:02.006Z,97661.84
2022-08-09T02:04:04.467Z,97668.72
2022-08-09T02:05:15.739Z,97663.66
2022-08-09T02:06:39.564Z,97670.41
2022-08-09T02:08:39.794Z,97663.16
2022-08-09T02:09:13.066Z,97670.84
2022-08-09T02:10:29.889Z,97666.38
2022-08-09T02:11:40.480Z,97664.16
2022-08-09T02:12:47.367Z,97666.66
2022-08-09T02:14:06.914Z,97663.66
2022-08-09T02:15:15.460Z,97668.13
2022-08-09T02:16:18.779Z,97665.25
2022-08-09T02:18:01.630Z,97668.13
2022-08-09T02:18:56.418Z,97672.63
2022-08-09T02:19:58.729Z,97664.16
2022-08-09T02:21:08.345Z,97671.03
2022-08-09T02:22:15.232Z,97664.75
2022-08-09T02:23:39.953Z,97668.53
2022-08-09T02:24:44.208Z,97660.06
2022-08-09T02:25:56.977Z,97665.53
2022-08-09T02:27:02.275Z,97662.09
2022-08-09T02:28:09.765Z,97669.41
2022-08-09T02:29:25.499Z,97662.84
2022-08-09T02:30:29.637Z,97665.69
2022-08-09T02:31:36.309Z,97663.84
2022-08-09T02:32:41.856Z,97664.63
2022-08-09T02:34:06.788Z,97665.47
2022-08-09T02:35:17.379Z,97661.81
2022-08-09T02:36:21.967Z,97670.28
2022-08-09T02:37:31.713Z,97666.25
2022-08-09T02:38:50.103Z,97666.94
2022-08-09T02:40:01.565Z,97667.94
2022-08-09T02:41:12.891Z,97660.25
2022-08-09T02:42:20.120Z,97670.16
2022-08-09T02:43:29.349Z,97666.69
2022-08-09T02:44:49.594Z,97670.72
2022-08-09T02:45:52.672Z,97672.31
2022-08-09T02:46:55.722Z,97670.72
2022-08-09T02:48:01.283Z,97669.50
2022-08-09T02:49:08.100Z,97674.31
2022-08-09T02:50:13.563Z,97671.91
2022-08-09T02:51:20.764Z,97673.13
2022-08-09T02:52:24.505Z,97660.78
2022-08-09T02:53:34.346Z,97661.81
2022-08-09T02:54:54.171Z,97666.25
2022-08-09T02:55:59.025Z,97654.50
2022-08-09T02:57:14.068Z,97658.75
2022-08-09T02:58:37.105Z,97666.66
2022-08-09T02:59:40.317Z,97661.59
2022-08-09T03:01:04.362Z,97659.63
2022-08-09T03:02:12.083Z,97662.25
2022-08-09T03:03:21.347Z,97657.63
2022-08-09T03:04:26.334Z,97660.03
2022-08-09T03:05:34.491Z,97664.28
2022-08-09T03:06:37.989Z,97657.84
2022-08-09T03:07:42.655Z,97652.59
2022-08-09T03:08:58.062Z,97652.59
2022-08-09T03:10:00.701Z,97653.38
2022-08-09T03:11:04.336Z,97657.25
2022-08-09T03:12:10.980Z,97654.19
2022-08-09T03:13:15.396Z,97658.00
2022-08-09T03:14:18.553Z,97656.97
2022-08-09T03:15:22.940Z,97655.94
2022-08-09T03:16:25.084Z,97660.22
2022-08-09T03:17:28.201Z,97656.53
2022-08-09T03:18:31.286Z,97657.34
2022-08-09T03:19:52.005Z,97661.81
2022-08-09T03:20:57.128Z,97661.59
2022-08-09T03:21:59.478Z,97652.72
2022-08-09T03:23:14.496Z,97654.19
2022-08-09T03:24:31.302Z,97657.25
2022-08-09T03:25:59.260Z,97660.69
2022-08-09T03:27:07.314Z,97661.88
2022-08-09T03:28:11.343Z,97658.78
2022-08-09T03:29:23.151Z,97662.84
2022-08-09T03:30:33.628Z,97658.16
2022-08-09T03:31:42.600Z,97658.97
2022-08-09T03:32:59.843Z,97656.53
2022-08-09T03:34:03.447Z,97659.97
2022-08-09T03:35:24.205Z,97656.97
2022-08-09T03:36:28.075Z,97667.06
2022-08-09T03:37:56.266Z,97662.84
2022-08-09T03:38:51.998Z,97660.22
2022-08-09T03:39:55.621Z,97658.16
2022-08-09T03:40:58.545Z,97662.00
2022-08-09T03:42:05.938Z,97663.84
2022-08-09T03:43:09.101Z,97660.22
2022-08-09T03:44:13.402Z,97658.00
2022-08-09T03:45:17.569Z,97652.13
2022-08-09T03:46:39.528Z,97653.19
2022-08-09T03:47:44.088Z,97660.63
2022-08-09T03:48:54.279Z,97661.06
2022-08-09T03:49:58.047Z,97654.19
2022-08-09T03:51:00.960Z,97655.34
2022-08-09T03:52:04.482Z,97652.53
2022-08-09T03:53:07.488Z,97656.53
2022-08-09T03:54:14.431Z,97659.97
2022-08-09T03:55:16.579Z,97664.00
2022-08-09T03:56:19.786Z,97659.53
2022-08-09T03:57:21.712Z,97661.97
2022-08-09T03:58:23.879Z,97661.97
2022-08-09T03:59:53.265Z,97660.94
2022-08-09T04:00:49.966Z,97662.31
2022-08-09T04:01:53.877Z,97668.41
2022-08-09T04:02:57.381Z,97667.97
2022-08-09T04:04:03.870Z,97660.28
2022-08-09T04:05:27.513Z,97661.31
2022-08-09T04:06:29.653Z,97662.75
2022-08-09T04:07:47.355Z,97661.72
2022-08-09T04:08:53.711Z,97665.19
2022-08-09T04:09:55.537Z,97657.88
2022-08-09T04:11:01.614Z,97661.69
2022-08-09T04:12:11.836Z,97664.06
2022-08-09T04:13:14.029Z,97671.34
2022-08-09T04:14:53.172Z,97665.88
2022-08-09T04:16:20.494Z,97672.53
2022-08-09T04:17:07.601Z,97658.31
2022-08-09T04:18:09.691Z,97666.81
2022-08-09T04:19:30.357Z,97665.19
2022-08-09T04:20:42.342Z,97661.41
2022-08-09T04:21:46.579Z,97667.88
2022-08-09T04:22:50.435Z,97665.25
2022-08-09T04:23:53.617Z,97660.22
2022-08-09T04:24:56.483Z,97667.88
2022-08-09T04:25:58.263Z,97664.03
2022-08-09T04:27:00.061Z,97667.25
2022-08-09T04:28:03.601Z,97661.78
2022-08-09T04:29:10.826Z,97661.78
2022-08-09T04:30:20.854Z,97667.38
2022-08-09T04:31:26.314Z,97665.56
2022-08-09T04:32:39.712Z,97668.44
2022-08-09T04:33:52.774Z,97665.19
2022-08-09T04:34:57.446Z,97662.00
2022-08-09T04:35:59.503Z,97663.00
2022-08-09T04:37:01.532Z,97661.78
2022-08-09T04:38:03.743Z,97662.38
2022-08-09T04:39:08.763Z,97672.06
2022-08-09T04:40:11.660Z,97666.38
2022-08-09T04:41:23.796Z,97669.59
2022-08-09T04:42:29.911Z,97668.56
2022-08-09T04:43:33.627Z,97674.41
2022-08-09T04:44:37.650Z,97671.19
2022-08-09T04:45:53.830Z,97670.19
2022-08-09T04:46:58.932Z,97665.94
2022-08-09T04:48:10.302Z,97674.50
2022-08-09T04:49:12.220Z,97665.00
2022-08-09T04:50:16.775Z,97676.13
2022-08-09T04:51:21.524Z,97671.06
2022-08-09T04:52:26.492Z,97671.06
2022-08-09T04:53:29.143Z,97678.50
2022-08-09T04:54:33.603Z,97677.88
2022-08-09T04:55:42.004Z,97673.41
2022-08-09T04:56:57.740Z,97689.56
2022-08-09T04:58:09.332Z,97679.63
2022-08-09T04:59:15.364Z,97678.38
2022-08-09T05:00:17.615Z,97678.75
2022-08-09T05:01:19.797Z,97681.13
2022-08-09T05:02:23.052Z,97684.38
2022-08-09T05:03:40.362Z,97680.72
2022-08-09T05:04:47.367Z,97677.50
2022-08-09T05:05:51.948Z,97680.94
2022-08-09T05:06:54.732Z,97681.50
2022-08-09T05:07:58.430Z,97680.72
2022-08-09T05:09:01.451Z,97680.72
2022-08-09T05:10:03.818Z,97680.72
2022-08-09T05:11:07.519Z,97679.09
2022-08-09T05:12:11.064Z,97680.72
2022-08-09T05:13:14.666Z,97677.66
2022-08-09T05:14:16.644Z,97678.47
2022-08-09T05:15:38.616Z,97680.28
2022-08-09T05:16:58.042Z,97684.31
2022-08-09T05:18:39.294Z,97678.25
2022-08-09T05:19:26.119Z,97681.22
2022-08-09T05:20:33.665Z,97686.28
2022-08-09T05:21:46.852Z,97681.81
2022-08-09T05:23:54.027Z,97687.91
2022-08-09T05:24:12.592Z,97695.22
2022-08-09T05:25:16.492Z,97685.47
2022-08-09T05:26:37.391Z,97686.06
2022-08-09T05:27:46.329Z,97685.03
2022-08-09T05:28:50.026Z,97676.53
2022-08-09T05:29:54.026Z,97684.69
2022-08-09T05:30:56.059Z,97684.69
2022-08-09T05:32:02.855Z,97681.81
2022-08-09T05:33:09.419Z,97682.03
2022-08-09T05:34:16.999Z,97683.63
2022-08-09T05:35:22.001Z,97685.03
2022-08-09T05:36:28.813Z,97685.03
2022-08-09T05:37:30.777Z,97685.41
2022-08-09T05:38:49.295Z,97680.72
2022-08-09T05:39:51.304Z,97680.50
2022-08-09T05:40:53.212Z,97687.59
2022-08-09T05:41:55.080Z,97685.84
2022-08-09T05:42:57.085Z,97695.13
2022-08-09T05:43:59.543Z,97685.19
2022-08-09T05:45:01.353Z,97690.81
2022-08-09T05:46:03.646Z,97694.03
2022-08-09T05:47:05.949Z,97685.69
2022-08-09T05:48:07.779Z,97686.47
2022-08-09T05:50:23.695Z,97687.72
2022-08-09T05:50:44.036Z,97687.50
2022-08-09T05:51:54.443Z,97688.53
2022-08-09T05:52:56.340Z,97691.75
2022-08-09T05:53:59.750Z,97685.47
2022-08-09T05:55:03.060Z,97695.19
2022-08-09T05:56:09.356Z,97691.16
2022-08-09T05:57:19.109Z,97687.72
2022-08-09T05:58:21.206Z,97696.44
2022-08-09T05:59:23.181Z,97697.09
2022-08-09T06:00:29.103Z,97693.44
2022-08-09T06:01:33.703Z,97697.91
2022-08-09T06:02:46.719Z,97703.75
2022-08-09T06:03:54.499Z,97699.06
2022-08-09T06:05:00.534Z,97705.97
2022-08-09T06:06:05.739Z,97697.59
2022-08-09T06:07:07.835Z,97699.00
2022-08-09T06:08:11.470Z,97696.94
2022-08-09T06:09:40.532Z,97697.53
2022-08-09T06:10:40.945Z,97700.53
2022-08-09T06:11:57.303Z,97698.13
2022-08-09T06:13:03.188Z,97699.31
2022-08-09T06:14:14.790Z,97706.19
2022-08-09T06:15:17.514Z,97702.91
2022-08-09T06:16:19.319Z,97705.66
2022-08-09T06:17:21.129Z,97700.38
2022-08-09T06:18:25.305Z,97706.03
2022-08-09T06:19:27.842Z,97708.44
2022-08-09T06:20:30.220Z,97707.63
2022-08-09T06:21:32.215Z,97706.03
2022-08-09T06:22:34.750Z,97704.97
2022-08-09T06:23:58.918Z,97708.66
2022-08-09T06:24:58.596Z,97702.94
2022-08-09T06:26:01.423Z,97712.00
2022-08-09T06:27:03.463Z,97715.25
2022-08-09T06:28:05.645Z,97716.03
2022-08-09T06:29:08.537Z,97717.63
2022-08-09T06:30:17.025Z,97714.22
2022-08-09T06:31:19.519Z,97718.22
2022-08-09T06:32:59.691Z,97717.22
2022-08-09T06:33:55.227Z,97713.09
2022-08-09T06:34:57.053Z,97728.47
2022-08-09T06:35:59.290Z,97722.97
2022-08-09T06:37:02.909Z,97721.59
2022-08-09T06:38:05.447Z,97723.75
2022-08-09T06:39:11.904Z,97725.16
2022-08-09T06:40:22.001Z,97734.00
2022-08-09T06:41:40.564Z,97727.03
2022-08-09T06:42:48.173Z,97727.16
2022-08-09T06:43:49.988Z,97732.56
2022-08-09T06:44:55.511Z,97732.56
2022-08-09T06:46:05.124Z,97729.13
2022-08-09T06:47:12.371Z,97730.50
2022-08-09T06:48:16.683Z,97726.38
2022-08-09T06:49:44.776Z,97733.28
2022-08-09T06:50:49.647Z,97727.22
2022-08-09T06:51:51.453Z,97726.75
2022-08-09T06:52:54.735Z,97726.53
2022-08-09T06:54:00.723Z,97733.41
2022-08-09T06:55:06.639Z,97728.47
2022-08-09T06:56:14.639Z,97733.31
2022-08-09T06:57:16.489Z,97732.63
2022-08-09T06:58:40.571Z,97735.25
2022-08-09T07:00:49.458Z,97727.72
2022-08-09T07:01:02.072Z,97729.88
2022-08-09T07:02:04.574Z,97733.22
2022-08-09T07:03:06.958Z,97727.94
2022-08-09T07:04:10.495Z,97733.34
2022-08-09T07:05:21.657Z,97733.34
2022-08-09T07:06:25.521Z,97731.13
2022-08-09T07:08:01.008Z,97729.09
2022-08-09T07:08:51.611Z,97737.72
2022-08-09T07:10:14.149Z,97743.22
2022-08-09T07:11:17.553Z,97733.22
2022-08-09T07:12:40.797Z,97738.50
2022-08-09T07:13:45.085Z,97732.50
2022-08-09T07:16:38.544Z,97743.53
2022-08-09T07:16:43.462Z,97737.56
2022-08-09T07:17:52.810Z,97747.84
2022-08-09T07:18:58.272Z,97734.28
2022-08-09T07:20:00.087Z,97733.84
2022-08-09T07:21:01.938Z,97735.00
2022-08-09T07:22:04.124Z,97743.94
2022-08-09T07:23:06.138Z,97739.47
2022-08-09T07:24:21.163Z,97743.16
2022-08-09T07:25:38.939Z,97736.59
2022-08-09T07:26:44.720Z,97738.56
2022-08-09T07:27:53.346Z,97736.84
2022-08-09T07:29:08.967Z,97729.25
2022-08-09T07:30:14.547Z,97729.38
2022-08-09T07:31:16.826Z,97732.13
2022-08-09T07:32:18.699Z,97735.34
2022-08-09T07:33:24.880Z,97733.28
2022-08-09T07:34:27.205Z,97730.97
2022-08-09T07:35:29.069Z,97729.13
2022-08-09T07:36:41.662Z,97727.28
2022-08-09T07:37:49.342Z,97729.94
2022-08-09T07:39:00.459Z,97726.84
2022-08-09T07:40:03.192Z,97728.47
2022-08-09T07:41:11.141Z,97731.19
2022-08-09T07:42:14.078Z,97727.97
2022-08-09T07:43:16.866Z,97726.97
2022-08-09T07:44:18.990Z,97729.91
2022-08-09T07:45:39.882Z,97730.50
2022-08-09T07:46:43.121Z,97734.63
2022-08-09T07:48:00.467Z,97731.53
2022-08-09T07:49:06.116Z,97731.19
2022-08-09T07:50:10.129Z,97740.13
2022-08-09T07:52:05.420Z,97726.69
2022-08-09T07:52:34.006Z,97730.38
2022-08-09T07:54:04.238Z,97730.97
2022-08-09T07:55:01.310Z,97734.19
2022-08-09T07:56:27.184Z,97727.84
2022-08-09T07:57:33.739Z,97731.06
2022-08-09T07:58:37.806Z,97735.41
2022-08-09T07:59:51.951Z,97734.72
2022-08-09T08:01:06.632Z,97729.75
2022-08-09T08:02:19.395Z,97734.81
2022-08-09T08:03:22.051Z,97727.47
2022-08-09T08:04:32.264Z,97730.31
2022-08-09T08:05:54.077Z,97727.25
2022-08-09T08:07:00.318Z,97727.69
2022-08-09T08:09:00.758Z,97729.16
2022-08-09T08:09:51.564Z,97724.78
2022-08-09T08:11:15.354Z,97723.25
2022-08-09T08:12:28.067Z,97729.47
2022-08-09T08:13:38.214Z,97722.31
2022-08-09T08:14:53.071Z,97721.03
2022-08-09T08:15:54.862Z,97725.88
2022-08-09T08:17:07.355Z,97725.88
2022-08-09T08:18:09.787Z,97725.88
2022-08-09T08:19:17.380Z,97721.72
2022-08-09T08:20:28.494Z,97714.22
2022-08-09T08:21:32.003Z,97721.72
2022-08-09T08:22:34.261Z,97717.53
2022-08-09T08:23:38.411Z,97709.69
2022-08-09T08:24:47.199Z,97719.81
2022-08-09T08:26:06.453Z,97721.97
2022-08-09T08:27:16.995Z,97719.66
2022-08-09T08:28:31.824Z,97717.91
2022-08-09T08:29:39.250Z,97717.16
2022-08-09T08:30:47.634Z,97709.56
2022-08-09T08:32:03.248Z,97713.09
2022-08-09T08:33:06.018Z,97708.09
2022-08-09T08:34:14.110Z,97705.00
2022-08-09T08:35:18.256Z,97710.41
2022-08-09T08:36:28.511Z,97708.06
2022-08-09T08:37:41.631Z,97702.47
2022-08-09T08:38:54.045Z,97704.56
2022-08-09T08:39:58.406Z,97701.09
2022-08-09T08:41:06.146Z,97696.13
2022-08-09T08:42:08.651Z,97705.97
2022-08-09T08:43:13.781Z,97701.56
2022-08-09T08:44:16.761Z,97696.59
2022-08-09T08:45:53.579Z,97699.31
2022-08-09T08:47:12.373Z,97708.69
2022-08-09T08:48:19.224Z,97701.31
2022-08-09T08:49:22.638Z,97703.25
2022-08-09T08:50:40.175Z,97709.91
2022-08-09T08:52:00.205Z,97695.31
2022-08-09T08:53:04.319Z,97704.78
2022-08-09T08:54:10.279Z,97705.00
2022-08-09T08:55:23.361Z,97696.09
2022-08-09T08:56:28.061Z,97697.22
2022-08-09T08:57:30.240Z,97700.41
2022-08-09T08:58:37.752Z,97697.28
2022-08-09T08:59:46.493Z,97697.34
2022-08-09T09:00:54.311Z,97698.47
2022-08-09T09:01:59.773Z,97698.22
2022-08-09T09:03:11.634Z,97697.97
2022-08-09T09:04:14.840Z,97692.97
2022-08-09T09:05:20.246Z,97693.84
2022-08-09T09:06:36.716Z,97698.72
2022-08-09T09:07:44.717Z,97695.09
2022-08-09T09:08:52.336Z,97700.00
2022-08-09T09:10:02.881Z,97703.44
2022-08-09T09:11:07.517Z,97700.31
2022-08-09T09:12:16.700Z,97700.63
2022-08-09T09:13:19.590Z,97702.53
2022-08-09T09:14:26.752Z,97703.94
2022-08-09T09:15:29.006Z,97704.50
2022-08-09T09:16:34.408Z,97697.09
2022-08-09T09:17:49.417Z,97706.47
2022-08-09T09:19:10.743Z,97697.44
2022-08-09T09:20:17.449Z,97696.03
2022-08-09T09:21:25.968Z,97696.84
2022-08-09T09:22:29.668Z,97697.44
2022-08-09T09:23:49.690Z,97696.16
2022-08-09T09:26:01.002Z,97692.25
2022-08-09T09:26:23.307Z,97690.53
2022-08-09T09:28:05.727Z,97696.41
2022-08-09T09:29:04.192Z,97694.91
2022-08-09T09:30:26.261Z,97689.09
2022-08-09T09:32:07.078Z,97690.72
2022-08-09T09:33:15.652Z,97687.84
2022-08-09T09:34:19.401Z,97689.28
2022-08-09T09:35:21.247Z,97679.22
2022-08-09T09:36:23.022Z,97688.56
2022-08-09T09:37:31.996Z,97686.16
2022-08-09T09:38:41.893Z,97678.72
2022-08-09T09:39:55.568Z,97678.75
2022-08-09T09:40:59.107Z,97682.00
2022-08-09T09:42:08.932Z,97677.53
2022-08-09T09:43:20.218Z,97678.00
2022-08-09T09:44:31.808Z,97678.25
2022-08-09T09:47:16.711Z,97674.59
2022-08-09T09:48:23.217Z,97668.25
2022-08-09T09:49:50.271Z,97675.72
2022-08-09T09:50:51.497Z,97677.34
2022-08-09T09:52:02.294Z,97671.50
2022-08-09T09:53:04.291Z,97676.34
2022-08-09T09:54:20.657Z,97678.22
2022-08-09T09:55:29.179Z,97672.13
2022-08-09T09:56:36.155Z,97682.56
2022-08-09T09:58:18.235Z,97680.25
2022-08-09T09:59:26.454Z,97672.34
2022-08-09T10:00:43.475Z,97678.75
2022-08-09T10:02:00.163Z,97680.13
2022-08-09T10:03:11.605Z,97678.81
2022-08-09T10:04:22.959Z,97677.78
2022-08-09T10:06:03.611Z,97675.66
2022-08-09T10:06:54.797Z,97680.22
2022-08-09T10:08:25.936Z,97676.72
2022-08-09T10:09:25.802Z,97678.84
2022-08-09T10:10:31.502Z,97670.38
2022-08-09T10:12:04.475Z,97671.97
2022-08-09T10:12:56.191Z,97671.22
2022-08-09T10:13:58.276Z,97675.47
2022-08-09T10:15:04.319Z,97679.25
2022-08-09T10:16:55.108Z,97668.34
2022-08-09T10:17:50.181Z,97673.16
2022-08-09T10:18:54.626Z,97668.38
2022-08-09T10:19:57.067Z,97672.09
2022-08-09T10:21:08.270Z,97665.19
2022-08-09T10:22:10.112Z,97663.56
2022-08-09T10:23:20.379Z,97663.56
2022-08-09T10:24:25.536Z,97668.91
2022-08-09T10:26:07.541Z,97665.72
2022-08-09T10:26:59.954Z,97671.84
2022-08-09T10:28:02.763Z,97673.19
2022-08-09T10:29:32.781Z,97675.28
2022-08-09T10:32:13.640Z,97673.69
2022-08-09T10:33:29.534Z,97668.28
2022-08-09T10:34:36.006Z,97660.53
2022-08-09T10:35:38.567Z,97664.50
2022-08-09T10:36:42.239Z,97666.09
2022-08-09T10:37:44.687Z,97654.34
2022-08-09T10:38:57.132Z,97666.31
2022-08-09T10:40:02.211Z,97666.78
2022-08-09T10:41:04.695Z,97664.13
2022-08-09T10:42:06.896Z,97664.34
2022-08-09T10:43:13.065Z,97669.09
2022-08-09T10:44:18.067Z,97670.16
2022-08-09T10:45:21.732Z,97664.50
2022-08-09T10:46:52.345Z,97659.91
2022-08-09T10:48:32.146Z,97671.34
2022-08-09T10:49:51.817Z,97663.03
2022-08-09T10:51:13.758Z,97664.00
2022-08-09T10:52:30.784Z,97668.75
2022-08-09T10:53:38.063Z,97667.09
2022-08-09T10:54:41.414Z,97661.72
2022-08-09T10:55:55.176Z,97666.56
2022-08-09T10:57:19.319Z,97660.53
2022-08-09T10:58:33.537Z,97660.00
2022-08-09T10:59:55.528Z,97659.16
2022-08-09T11:03:02.999Z,97660.88
2022-08-09T11:03:17.972Z,97658.09
2022-08-09T11:04:29.852Z,97659.28
2022-08-09T11:05:31.281Z,97651.84
2022-08-09T11:06:37.158Z,97655.59
2022-08-09T11:07:55.769Z,97653.31
2022-08-09T11:09:16.106Z,97650.53
2022-08-09T11:10:37.762Z,97655.81
2022-08-09T11:11:55.242Z,97647.47
2022-08-09T11:13:13.786Z,97653.06
2022-08-09T11:14:38.196Z,97652.41
2022-08-09T11:15:50.738Z,97645.47
2022-08-09T11:16:53.057Z,97649.31
2022-08-09T11:18:03.722Z,97649.28
2022-08-09T11:19:08.035Z,97646.03
2022-08-09T11:20:22.267Z,97642.28
2022-08-09T11:22:05.559Z,97645.09
2022-08-09T11:23:23.846Z,97645.75
2022-08-09T11:24:51.767Z,97646.94
2022-08-09T11:25:54.680Z,97643.81
2022-08-09T11:26:56.721Z,97646.66
2022-08-09T11:28:08.394Z,97652.94
2022-08-09T11:30:06.201Z,97651.94
2022-08-09T11:31:43.528Z,97644.47
2022-08-09T11:32:51.804Z,97649.69
2022-08-09T11:33:58.029Z,97652.13
2022-08-09T11:35:01.463Z,97648.69
2022-08-09T11:36:03.891Z,97649.59
2022-08-09T11:37:08.998Z,97647.69
2022-08-09T11:38:22.560Z,97647.50
2022-08-09T11:39:54.905Z,97653.25
2022-08-09T11:41:02.151Z,97648.03
2022-08-09T11:42:14.677Z,97651.59
2022-08-09T11:43:18.218Z,97653.03
2022-08-09T11:44:20.092Z,97655.81
2022-08-09T11:45:23.059Z,97649.25
2022-08-09T11:46:48.060Z,97652.66
2022-08-09T11:47:53.170Z,97648.41
2022-08-09T11:48:57.818Z,97643.38
2022-08-09T11:50:54.981Z,97642.06
2022-08-09T11:52:56.760Z,97646.22
2022-08-09T11:53:28.055Z,97651.03
2022-08-09T11:54:30.163Z,97647.84
2022-08-09T11:55:52.465Z,97647.22
2022-08-09T11:57:15.723Z,97637.13
2022-08-09T11:58:32.339Z,97648.44
2022-08-09T11:59:35.430Z,97646.88
2022-08-09T12:00:48.497Z,97648.66
2022-08-09T12:02:34.788Z,97646.16
2022-08-09T12:03:50.423Z,97650.81
2022-08-09T12:04:39.208Z,97641.56
2022-08-09T12:05:42.449Z,97645.28
2022-08-09T12:06:55.649Z,97642.28
2022-08-09T12:07:58.834Z,97640.28
2022-08-09T12:09:01.919Z,97638.69
2022-08-09T12:10:03.886Z,97643.94
2022-08-09T12:11:05.803Z,97635.88
2022-08-09T12:12:29.453Z,97636.72
2022-08-09T12:14:10.614Z,97635.78
2022-08-09T12:15:07.838Z,97637.06
2022-08-09T12:16:37.463Z,97634.19
2022-08-09T12:17:43.239Z,97630.28
2022-08-09T12:18:53.686Z,97632.09
2022-08-09T12:19:59.899Z,97632.59
2022-08-09T12:21:03.308Z,97631.66
2022-08-09T12:22:05.564Z,97639.78
2022-08-09T12:23:07.487Z,97630.47
2022-08-09T12:24:10.578Z,97629.47
2022-08-09T12:25:16.283Z,97629.47
2022-08-09T12:26:25.660Z,97641.50
2022-08-09T12:29:10.554Z,97633.34
2022-08-09T12:29:13.736Z,97637.25
2022-08-09T12:30:35.233Z,97631.72
2022-08-09T12:32:01.907Z,97630.94
2022-08-09T12:33:04.620Z,97622.88
2022-08-09T12:34:06.448Z,97623.94
2022-08-09T12:35:10.852Z,97618.03
2022-08-09T12:36:31.187Z,97615.00
2022-08-09T12:37:37.855Z,97617.13
2022-08-09T12:38:46.280Z,97615.75
2022-08-09T12:40:11.079Z,97619.47
2022-08-09T12:41:13.483Z,97625.69
2022-08-09T12:42:16.649Z,97615.56
2022-08-09T12:43:23.365Z,97624.84
2022-08-09T12:44:46.365Z,97617.88
2022-08-09T12:45:59.742Z,97611.59
2022-08-09T12:47:02.470Z,97624.56
2022-08-09T12:48:20.170Z,97616.19
2022-08-09T12:49:29.565Z,97611.16
2022-08-09T12:50:32.321Z,97620.31
2022-08-09T12:52:01.159Z,97618.75
2022-08-09T12:53:08.713Z,97621.28
2022-08-09T12:54:11.707Z,97620.19
2022-08-09T12:56:15.185Z,97615.91
2022-08-09T12:56:54.109Z,97625.69
2022-08-09T12:57:56.411Z,97620.56
2022-08-09T12:59:12.076Z,97616.78
2022-08-09T13:00:26.502Z,97616.53
2022-08-09T13:01:28.864Z,97613.84
2022-08-09T13:02:45.696Z,97610.53
2022-08-09T13:03:58.889Z,97611.19
2022-08-09T13:05:02.508Z,97613.28
2022-08-09T13:06:14.363Z,97611.50
2022-08-09T13:07:20.016Z,97615.91
2022-08-09T13:08:40.442Z,97623.50
2022-08-09T13:09:55.591Z,97612.91
2022-08-09T13:11:13.204Z,97614.66
2022-08-09T13:12:24.790Z,97613.59
2022-08-09T13:13:37.996Z,97609.34
2022-08-09T13:14:54.086Z,97604.28
2022-08-09T13:15:56.975Z,97598.31
2022-08-09T13:17:03.134Z,97593.59
2022-08-09T13:18:09.542Z,97591.09
2022-08-09T13:19:13.084Z,97597.13
2022-08-09T13:20:23.178Z,97599.00
2022-08-09T13:22:37.624Z,97595.88
2022-08-09T13:23:05.564Z,97606.78
2022-08-09T13:24:53.216Z,97596.66
2022-08-09T13:25:55.003Z,97595.69
2022-08-09T13:26:58.739Z,97593.78
2022-08-09T13:28:08.839Z,97590.47
2022-08-09T13:29:18.415Z,97598.72
2022-08-09T13:32:09.724Z,97589.69
2022-08-09T13:32:17.101Z,97593.66
2022-08-09T13:33:23.867Z,97590.47
2022-08-09T13:34:26.111Z,97593.66
2022-08-09T13:35:34.650Z,97595.88
2022-08-09T13:36:56.460Z,97588.13
2022-08-09T13:37:58.337Z,97594.28
2022-08-09T13:39:30.980Z,97592.72
2022-08-09T13:41:54.354Z,97590.31
2022-08-09T13:41:56.388Z,97583.69
2022-08-09T13:43:05.047Z,97589.38
2022-08-09T13:44:07.275Z,97582.44
2022-08-09T13:45:12.387Z,97582.44
2022-08-09T13:47:16.671Z,97577.97